sensor_id;sensor_type;location;lat;lon;timestamp;pressure;altitude;pressure_sealevel;temperature;humidity
62333;BME280;48624;49.812;8.562;2023-04-08T00:00:44;100983.09;;;8.08;99.03
62333;BME280;48624;49.812;8.562;2023-04-08T00:03:10;100968.28;;;8.23;98.95
62333;BME280;48624;49.812;8.562;2023-04-08T00:05:35;100970.03;;;8.59;95.98
62333;BME280;48624;49.812;8.562;2023-04-08T00:08:01;100974.03;;;8.31;98.10
62333;BME280;48624;49.812;8.562;2023-04-08T00:10:26;100987.31;;;8.47;97.47
62333;BME280;48624;49.812;8.562;2023-04-08T00:12:51;100981.19;;;8.29;97.76
62333;BME280;48624;49.812;8.562;2023-04-08T00:15:17;100985.59;;;8.28;98.38
62333;BME280;48624;49.812;8.562;2023-04-08T00:17:42;100978.44;;;8.13;98.85
62333;BME280;48624;49.812;8.562;2023-04-08T00:20:08;100984.88;;;8.25;97.46
62333;BME280;48624;49.812;8.562;2023-04-08T00:22:34;100982.69;;;7.98;100.00
62333;BME280;48624;49.812;8.562;2023-04-08T00:25:00;100988.69;;;8.19;98.36
62333;BME280;48624;49.812;8.562;2023-04-08T00:27:26;100984.97;;;8.23;98.54
62333;BME280;48624;49.812;8.562;2023-04-08T00:29:52;100987.69;;;8.22;98.96
62333;BME280;48624;49.812;8.562;2023-04-08T00:32:17;100990.31;;;8.22;99.19
62333;BME280;48624;49.812;8.562;2023-04-08T00:34:43;100988.31;;;8.27;98.64
62333;BME280;48624;49.812;8.562;2023-04-08T00:37:08;100982.19;;;8.26;98.65
62333;BME280;48624;49.812;8.562;2023-04-08T00:39:35;100985.75;;;8.43;96.96
62333;BME280;48624;49.812;8.562;2023-04-08T00:42:00;100991.53;;;8.14;98.24
62333;BME280;48624;49.812;8.562;2023-04-08T00:44:26;100987.31;;;8.47;96.70
62333;BME280;48624;49.812;8.562;2023-04-08T00:46:52;100985.59;;;8.46;96.75
62333;BME280;48624;49.812;8.562;2023-04-08T00:49:18;100987.31;;;8.47;96.66
62333;BME280;48624;49.812;8.562;2023-04-08T00:51:43;100991.91;;;8.26;97.19
62333;BME280;48624;49.812;8.562;2023-04-08T00:54:09;100990.44;;;8.01;99.90
62333;BME280;48624;49.812;8.562;2023-04-08T00:56:35;100991.72;;;8.11;98.88
62333;BME280;48624;49.812;8.562;2023-04-08T00:59:01;100996.97;;;8.11;99.57
62333;BME280;48624;49.812;8.562;2023-04-08T01:01:43;100987.59;;;8.05;99.08
62333;BME280;48624;49.812;8.562;2023-04-08T01:04:19;100997.59;;;7.99;99.48
62333;BME280;48624;49.812;8.562;2023-04-08T01:09:32;100995.91;;;8.33;97.77
62333;BME280;48624;49.812;8.562;2023-04-08T01:11:59;100998.50;;;8.35;96.47
62333;BME280;48624;49.812;8.562;2023-04-08T01:14:28;101002.13;;;8.32;97.41
62333;BME280;48624;49.812;8.562;2023-04-08T01:16:57;100992.88;;;8.05;98.36
62333;BME280;48624;49.812;8.562;2023-04-08T01:19:29;100992.66;;;8.28;98.06
62333;BME280;48624;49.812;8.562;2023-04-08T01:22:02;100989.38;;;8.23;97.22
62333;BME280;48624;49.812;8.562;2023-04-08T01:24:30;100997.53;;;8.18;98.22
62333;BME280;48624;49.812;8.562;2023-04-08T01:26:59;100999.94;;;8.23;98.18
62333;BME280;48624;49.812;8.562;2023-04-08T01:29:26;100989.16;;;8.27;96.87
62333;BME280;48624;49.812;8.562;2023-04-08T01:31:53;100986.59;;;7.89;99.68
62333;BME280;48624;49.812;8.562;2023-04-08T01:34:20;100988.59;;;8.03;100.00
62333;BME280;48624;49.812;8.562;2023-04-08T01:36:46;100989.19;;;7.90;100.00
62333;BME280;48624;49.812;8.562;2023-04-08T01:39:14;100989.75;;;7.97;100.00
62333;BME280;48624;49.812;8.562;2023-04-08T01:41:42;100982.47;;;8.02;100.00
62333;BME280;48624;49.812;8.562;2023-04-08T01:44:09;100986.16;;;7.98;100.00
62333;BME280;48624;49.812;8.562;2023-04-08T01:46:35;100983.56;;;7.79;100.00
62333;BME280;48624;49.812;8.562;2023-04-08T01:49:01;100993.03;;;7.83;100.00
62333;BME280;48624;49.812;8.562;2023-04-08T01:51:28;100986.09;;;8.00;99.88
62333;BME280;48624;49.812;8.562;2023-04-08T01:53:55;100980.78;;;7.63;100.00
62333;BME280;48624;49.812;8.562;2023-04-08T01:56:21;100984.63;;;7.94;100.00
62333;BME280;48624;49.812;8.562;2023-04-08T01:58:51;100988.75;;;7.81;100.00
62333;BME280;48624;49.812;8.562;2023-04-08T02:01:20;100995.13;;;7.76;100.00
62333;BME280;48624;49.812;8.562;2023-04-08T02:03:47;100982.47;;;7.83;100.00
62333;BME280;48624;49.812;8.562;2023-04-08T02:06:16;100989.47;;;7.84;100.00
62333;BME280;48624;49.812;8.562;2023-04-08T02:08:41;100993.69;;;7.88;100.00
62333;BME280;48624;49.812;8.562;2023-04-08T02:11:06;100990.19;;;7.88;100.00
62333;BME280;48624;49.812;8.562;2023-04-08T02:13:32;100987.47;;;7.89;100.00
62333;BME280;48624;49.812;8.562;2023-04-08T02:16:33;100999.03;;;7.87;99.73
62333;BME280;48624;49.812;8.562;2023-04-08T02:19:14;100995.41;;;7.89;100.00
62333;BME280;48624;49.812;8.562;2023-04-08T02:21:46;100983.91;;;7.90;100.00
62333;BME280;48624;49.812;8.562;2023-04-08T02:24:13;100998.38;;;8.01;99.31
62333;BME280;48624;49.812;8.562;2023-04-08T02:26:41;100992.22;;;8.00;98.96
62333;BME280;48624;49.812;8.562;2023-04-08T02:29:11;100993.03;;;8.02;98.06
62333;BME280;48624;49.812;8.562;2023-04-08T02:31:40;101002.75;;;7.83;99.65
62333;BME280;48624;49.812;8.562;2023-04-08T02:34:07;100999.13;;;7.66;100.00
62333;BME280;48624;49.812;8.562;2023-04-08T02:36:34;101000.81;;;7.67;100.00
62333;BME280;48624;49.812;8.562;2023-04-08T02:38:59;100998.69;;;7.75;100.00
62333;BME280;48624;49.812;8.562;2023-04-08T02:41:27;100994.75;;;7.84;100.00
62333;BME280;48624;49.812;8.562;2023-04-08T02:43:53;101002.88;;;7.80;100.00
62333;BME280;48624;49.812;8.562;2023-04-08T02:46:19;101001.53;;;7.71;100.00
62333;BME280;48624;49.812;8.562;2023-04-08T02:48:45;100998.13;;;7.69;100.00
62333;BME280;48624;49.812;8.562;2023-04-08T02:51:10;100993.03;;;7.83;100.00
62333;BME280;48624;49.812;8.562;2023-04-08T02:53:35;100996.53;;;7.84;98.64
62333;BME280;48624;49.812;8.562;2023-04-08T02:56:01;100997.69;;;7.78;100.00
62333;BME280;48624;49.812;8.562;2023-04-08T02:58:26;101000.81;;;7.67;100.00
62333;BME280;48624;49.812;8.562;2023-04-08T03:00:51;101007.44;;;7.76;100.00
62333;BME280;48624;49.812;8.562;2023-04-08T03:03:18;101001.22;;;7.77;100.00
62333;BME280;48624;49.812;8.562;2023-04-08T03:05:43;101008.69;;;7.69;100.00
62333;BME280;48624;49.812;8.562;2023-04-08T03:08:09;101008.38;;;7.75;99.85
62333;BME280;48624;49.812;8.562;2023-04-08T03:10:34;101011.22;;;7.70;99.56
62333;BME280;48624;49.812;8.562;2023-04-08T03:12:59;101010.09;;;7.57;100.00
62333;BME280;48624;49.812;8.562;2023-04-08T03:15:25;101009.38;;;7.53;100.00
62333;BME280;48624;49.812;8.562;2023-04-08T03:17:50;101008.66;;;7.49;100.00
62333;BME280;48624;49.812;8.562;2023-04-08T03:20:15;101007.22;;;7.42;100.00
62333;BME280;48624;49.812;8.562;2023-04-08T03:22:41;100997.03;;;7.34;100.00
62333;BME280;48624;49.812;8.562;2023-04-08T03:25:06;101009.34;;;7.34;100.00
62333;BME280;48624;49.812;8.562;2023-04-08T03:27:32;101006.16;;;7.27;100.00
62333;BME280;48624;49.812;8.562;2023-04-08T03:29:57;101012.50;;;7.23;100.00
62333;BME280;48624;49.812;8.562;2023-04-08T03:32:23;101015.34;;;7.18;99.72
62333;BME280;48624;49.812;8.562;2023-04-08T03:34:48;101016.53;;;7.11;99.89
62333;BME280;48624;49.812;8.562;2023-04-08T03:37:16;101023.84;;;7.04;99.75
62333;BME280;48624;49.812;8.562;2023-04-08T03:39:41;101025.81;;;6.99;99.62
62333;BME280;48624;49.812;8.562;2023-04-08T03:42:06;101030.84;;;6.85;100.00
62333;BME280;48624;49.812;8.562;2023-04-08T03:44:33;101020.41;;;6.82;99.87
62333;BME280;48624;49.812;8.562;2023-04-08T03:46:58;101024.66;;;6.86;98.40
62333;BME280;48624;49.812;8.562;2023-04-08T03:49:23;101028.00;;;6.89;96.28
62333;BME280;48624;49.812;8.562;2023-04-08T03:51:49;101025.28;;;6.70;96.07
62333;BME280;48624;49.812;8.562;2023-04-08T03:54:14;101033.91;;;6.74;95.90
62333;BME280;48624;49.812;8.562;2023-04-08T03:56:40;101029.47;;;6.53;98.57
62333;BME280;48624;49.812;8.562;2023-04-08T03:59:05;101024.75;;;6.41;99.48
62333;BME280;48624;49.812;8.562;2023-04-08T04:01:31;101020.72;;;6.32;99.52
62333;BME280;48624;49.812;8.562;2023-04-08T04:03:57;101030.63;;;6.25;100.00
62333;BME280;48624;49.812;8.562;2023-04-08T04:06:23;101031.63;;;6.23;100.00
62333;BME280;48624;49.812;8.562;2023-04-08T04:08:48;101026.81;;;6.10;100.00
62333;BME280;48624;49.812;8.562;2023-04-08T04:11:14;101041.00;;;6.08;100.00
62333;BME280;48624;49.812;8.562;2023-04-08T04:13:40;101033.34;;;6.00;100.00
62333;BME280;48624;49.812;8.562;2023-04-08T04:16:05;101041.38;;;5.97;100.00
62333;BME280;48624;49.812;8.562;2023-04-08T04:18:30;101039.97;;;5.88;100.00
62333;BME280;48624;49.812;8.562;2023-04-08T04:20:56;101037.75;;;5.77;100.00
62333;BME280;48624;49.812;8.562;2023-04-08T04:23:21;101049.84;;;5.81;100.00
62333;BME280;48624;49.812;8.562;2023-04-08T04:25:48;101036.94;;;5.75;100.00
62333;BME280;48624;49.812;8.562;2023-04-08T04:28:14;101044.09;;;5.72;100.00
62333;BME280;48624;49.812;8.562;2023-04-08T04:30:39;101047.72;;;5.67;100.00
62333;BME280;48624;49.812;8.562;2023-04-08T04:33:05;101053.88;;;5.68;99.91
62333;BME280;48624;49.812;8.562;2023-04-08T04:35:31;101058.53;;;5.60;100.00
62333;BME280;48624;49.812;8.562;2023-04-08T04:37:56;101063.94;;;5.57;100.00
62333;BME280;48624;49.812;8.562;2023-04-08T04:40:22;101065.63;;;5.58;100.00
62333;BME280;48624;49.812;8.562;2023-04-08T04:42:47;101059.84;;;5.48;100.00
62333;BME280;48624;49.812;8.562;2023-04-08T04:45:12;101062.31;;;5.52;99.21
62333;BME280;48624;49.812;8.562;2023-04-08T04:47:38;101066.16;;;5.44;100.00
62333;BME280;48624;49.812;8.562;2023-04-08T04:50:04;101069.94;;;5.60;97.56
62333;BME280;48624;49.812;8.562;2023-04-08T04:52:30;101069.94;;;5.35;99.65
62333;BME280;48624;49.812;8.562;2023-04-08T04:54:56;101067.97;;;5.16;100.00
62333;BME280;48624;49.812;8.562;2023-04-08T04:57:21;101070.84;;;5.34;99.80
62333;BME280;48624;49.812;8.562;2023-04-08T04:59:47;101073.13;;;4.94;100.00
62333;BME280;48624;49.812;8.562;2023-04-08T05:02:12;101066.69;;;4.77;100.00
62333;BME280;48624;49.812;8.562;2023-04-08T05:04:38;101073.66;;;4.51;100.00
62333;BME280;48624;49.812;8.562;2023-04-08T05:07:03;101074.91;;;4.39;100.00
62333;BME280;48624;49.812;8.562;2023-04-08T05:09:30;101079.78;;;4.52;100.00
62333;BME280;48624;49.812;8.562;2023-04-08T05:11:55;101075.78;;;4.40;100.00
62333;BME280;48624;49.812;8.562;2023-04-08T05:14:21;101076.56;;;4.42;100.00
62333;BME280;48624;49.812;8.562;2023-04-08T05:16:46;101080.63;;;4.52;100.00
62333;BME280;48624;49.812;8.562;2023-04-08T05:19:11;101082.03;;;4.63;100.00
62333;BME280;48624;49.812;8.562;2023-04-08T05:21:36;101087.50;;;4.56;100.00
62333;BME280;48624;49.812;8.562;2023-04-08T05:24:02;101086.13;;;4.71;100.00
62333;BME280;48624;49.812;8.562;2023-04-08T05:26:27;101085.53;;;4.63;100.00
62333;BME280;48624;49.812;8.562;2023-04-08T05:28:52;101087.53;;;4.55;100.00
62333;BME280;48624;49.812;8.562;2023-04-08T05:31:18;101090.91;;;4.58;100.00
62333;BME280;48624;49.812;8.562;2023-04-08T05:33:44;101085.72;;;4.57;100.00
62333;BME280;48624;49.812;8.562;2023-04-08T05:36:10;101084.75;;;4.60;100.00
62333;BME280;48624;49.812;8.562;2023-04-08T05:38:36;101087.88;;;4.71;100.00
62333;BME280;48624;49.812;8.562;2023-04-08T05:41:03;101092.44;;;4.66;100.00
62333;BME280;48624;49.812;8.562;2023-04-08T05:43:28;101095.72;;;4.72;100.00
62333;BME280;48624;49.812;8.562;2023-04-08T05:45:54;101105.19;;;4.77;100.00
62333;BME280;48624;49.812;8.562;2023-04-08T05:48:19;101108.47;;;4.83;100.00
62333;BME280;48624;49.812;8.562;2023-04-08T05:50:45;101098.69;;;4.89;100.00
62333;BME280;48624;49.812;8.562;2023-04-08T05:53:12;101105.75;;;4.86;100.00
62333;BME280;48624;49.812;8.562;2023-04-08T05:55:37;101118.09;;;4.84;100.00
62333;BME280;48624;49.812;8.562;2023-04-08T05:58:02;101124.59;;;4.99;100.00
62333;BME280;48624;49.812;8.562;2023-04-08T06:00:28;101124.19;;;4.85;100.00
62333;BME280;48624;49.812;8.562;2023-04-08T06:02:53;101118.28;;;5.05;100.00
62333;BME280;48624;49.812;8.562;2023-04-08T06:05:19;101124.44;;;5.04;100.00
62333;BME280;48624;49.812;8.562;2023-04-08T06:07:44;101126.69;;;4.88;100.00
62333;BME280;48624;49.812;8.562;2023-04-08T06:10:09;101132.31;;;5.04;100.00
62333;BME280;48624;49.812;8.562;2023-04-08T06:12:36;101134.03;;;4.78;100.00
62333;BME280;48624;49.812;8.562;2023-04-08T06:15:03;101135.25;;;4.68;100.00
62333;BME280;48624;49.812;8.562;2023-04-08T06:17:29;101147.41;;;4.97;100.00
62333;BME280;48624;49.812;8.562;2023-04-08T06:19:55;101135.19;;;4.96;100.00
62333;BME280;48624;49.812;8.562;2023-04-08T06:22:20;101136.00;;;4.71;100.00
62333;BME280;48624;49.812;8.562;2023-04-08T06:24:48;101130.31;;;4.85;100.00
62333;BME280;48624;49.812;8.562;2023-04-08T06:27:14;101143.31;;;4.89;100.00
62333;BME280;48624;49.812;8.562;2023-04-08T06:29:39;101147.25;;;5.02;100.00
62333;BME280;48624;49.812;8.562;2023-04-08T06:32:05;101146.06;;;5.12;100.00
62333;BME280;48624;49.812;8.562;2023-04-08T06:34:31;101146.13;;;4.82;100.00
62333;BME280;48624;49.812;8.562;2023-04-08T06:36:56;101153.94;;;5.12;100.00
62333;BME280;48624;49.812;8.562;2023-04-08T06:39:22;101155.38;;;4.94;100.00
62333;BME280;48624;49.812;8.562;2023-04-08T06:41:48;101147.75;;;5.13;100.00
62333;BME280;48624;49.812;8.562;2023-04-08T06:44:13;101146.91;;;4.86;100.00
62333;BME280;48624;49.812;8.562;2023-04-08T06:46:38;101155.53;;;4.90;100.00
62333;BME280;48624;49.812;8.562;2023-04-08T06:49:04;101154.31;;;5.27;100.00
62333;BME280;48624;49.812;8.562;2023-04-08T06:51:31;101152.63;;;5.24;100.00
62333;BME280;48624;49.812;8.562;2023-04-08T06:53:56;101156.50;;;5.39;100.00
62333;BME280;48624;49.812;8.562;2023-04-08T06:56:21;101156.19;;;5.49;100.00
62333;BME280;48624;49.812;8.562;2023-04-08T06:58:47;101168.53;;;5.96;100.00
62333;BME280;48624;49.812;8.562;2023-04-08T07:01:12;101168.28;;;6.04;100.00
62333;BME280;48624;49.812;8.562;2023-04-08T07:03:37;101165.63;;;5.80;100.00
62333;BME280;48624;49.812;8.562;2023-04-08T07:06:03;101172.78;;;5.75;100.00
62333;BME280;48624;49.812;8.562;2023-04-08T07:08:28;101172.22;;;6.16;100.00
62333;BME280;48624;49.812;8.562;2023-04-08T07:10:53;101170.91;;;6.28;100.00
62333;BME280;48624;49.812;8.562;2023-04-08T07:13:19;101167.19;;;6.56;100.00
62333;BME280;48624;49.812;8.562;2023-04-08T07:15:44;101174.00;;;6.84;96.84
62333;BME280;48624;49.812;8.562;2023-04-08T07:18:09;101173.47;;;6.96;97.90
62333;BME280;48624;49.812;8.562;2023-04-08T07:20:36;101174.78;;;6.86;95.94
62333;BME280;48624;49.812;8.562;2023-04-08T07:23:03;101169.34;;;7.32;96.32
62333;BME280;48624;49.812;8.562;2023-04-08T07:25:29;101177.22;;;7.33;93.91
62333;BME280;48624;49.812;8.562;2023-04-08T07:27:54;101180.56;;;7.58;91.49
62333;BME280;48624;49.812;8.562;2023-04-08T07:30:20;101178.59;;;7.42;91.17
62333;BME280;48624;49.812;8.562;2023-04-08T07:32:46;101186.56;;;7.61;91.30
62333;BME280;48624;49.812;8.562;2023-04-08T07:35:11;101189.81;;;7.27;91.53
62333;BME280;48624;49.812;8.562;2023-04-08T07:37:36;101194.97;;;7.90;90.38
62333;BME280;48624;49.812;8.562;2023-04-08T07:40:02;101199.19;;;7.95;86.33
62333;BME280;48624;49.812;8.562;2023-04-08T07:42:27;101190.84;;;8.04;86.69
62333;BME280;48624;49.812;8.562;2023-04-08T07:44:53;101202.94;;;7.89;87.10
62333;BME280;48624;49.812;8.562;2023-04-08T07:47:18;101200.94;;;8.53;81.88
62333;BME280;48624;49.812;8.562;2023-04-08T07:49:45;101198.03;;;8.59;78.64
62333;BME280;48624;49.812;8.562;2023-04-08T07:52:12;101203.44;;;8.37;79.38
62333;BME280;48624;49.812;8.562;2023-04-08T07:54:37;101197.03;;;7.84;82.96
62333;BME280;48624;49.812;8.562;2023-04-08T07:57:03;101205.84;;;8.23;83.09
62333;BME280;48624;49.812;8.562;2023-04-08T07:59:28;101206.97;;;7.98;82.45
62333;BME280;48624;49.812;8.562;2023-04-08T08:01:55;101214.50;;;8.45;80.84
62333;BME280;48624;49.812;8.562;2023-04-08T08:04:20;101208.09;;;8.51;78.20
62333;BME280;48624;49.812;8.562;2023-04-08T08:06:46;101213.75;;;8.23;81.75
62333;BME280;48624;49.812;8.562;2023-04-08T08:09:12;101211.97;;;8.81;77.70
62333;BME280;48624;49.812;8.562;2023-04-08T08:11:37;101211.25;;;8.77;78.22
62333;BME280;48624;49.812;8.562;2023-04-08T08:14:02;101213.13;;;8.75;78.09
62333;BME280;48624;49.812;8.562;2023-04-08T08:16:29;101217.78;;;8.51;81.42
62333;BME280;48624;49.812;8.562;2023-04-08T08:18:56;101218.13;;;8.43;81.80
62333;BME280;48624;49.812;8.562;2023-04-08T08:21:22;101222.00;;;8.74;79.69
62333;BME280;48624;49.812;8.562;2023-04-08T08:23:47;101222.19;;;8.88;77.93
62333;BME280;48624;49.812;8.562;2023-04-08T08:26:13;101227.81;;;8.81;78.87
62333;BME280;48624;49.812;8.562;2023-04-08T08:28:38;101229.84;;;8.56;80.66
62333;BME280;48624;49.812;8.562;2023-04-08T08:31:04;101227.50;;;8.50;81.28
62333;BME280;48624;49.812;8.562;2023-04-08T08:33:30;101229.53;;;9.19;79.57
62333;BME280;48624;49.812;8.562;2023-04-08T08:35:56;101231.91;;;8.88;78.41
62333;BME280;48624;49.812;8.562;2023-04-08T08:38:22;101229.25;;;8.88;78.99
62333;BME280;48624;49.812;8.562;2023-04-08T08:40:53;101222.84;;;8.74;77.07
62333;BME280;48624;49.812;8.562;2023-04-08T08:43:20;101231.06;;;9.05;78.52
62333;BME280;48624;49.812;8.562;2023-04-08T08:45:46;101231.16;;;9.04;76.17
62333;BME280;48624;49.812;8.562;2023-04-08T08:48:11;101241.38;;;9.47;77.57
62333;BME280;48624;49.812;8.562;2023-04-08T08:50:37;101234.31;;;9.29;77.76
62333;BME280;48624;49.812;8.562;2023-04-08T08:53:02;101239.06;;;10.09;74.04
62333;BME280;48624;49.812;8.562;2023-04-08T08:55:30;101240.13;;;10.05;71.61
62333;BME280;48624;49.812;8.562;2023-04-08T08:58:01;101245.19;;;9.58;73.39
62333;BME280;48624;49.812;8.562;2023-04-08T09:00:34;101243.94;;;9.48;74.90
62333;BME280;48624;49.812;8.562;2023-04-08T09:06:10;101253.16;;;9.04;72.26
62333;BME280;48624;49.812;8.562;2023-04-08T09:08:36;101249.66;;;9.04;73.44
62333;BME280;48624;49.812;8.562;2023-04-08T09:13:37;101255.78;;;9.04;73.16
62333;BME280;48624;49.812;8.562;2023-04-08T09:16:04;101255.03;;;9.20;73.87
62333;BME280;48624;49.812;8.562;2023-04-08T09:18:30;101254.56;;;9.11;72.93
62333;BME280;48624;49.812;8.562;2023-04-08T09:20:59;101256.00;;;9.36;72.79
62333;BME280;48624;49.812;8.562;2023-04-08T09:23:40;101251.50;;;9.38;72.68
62333;BME280;48624;49.812;8.562;2023-04-08T09:26:10;101253.59;;;9.49;71.09
62333;BME280;48624;49.812;8.562;2023-04-08T09:28:36;101257.63;;;9.74;71.14
62333;BME280;48624;49.812;8.562;2023-04-08T09:31:21;101257.63;;;9.56;70.52
62333;BME280;48624;49.812;8.562;2023-04-08T09:33:48;101262.16;;;10.23;68.06
62333;BME280;48624;49.812;8.562;2023-04-08T09:36:15;101273.31;;;9.95;70.89
62333;BME280;48624;49.812;8.562;2023-04-08T09:38:42;101275.31;;;9.74;70.42
62333;BME280;48624;49.812;8.562;2023-04-08T09:41:13;101274.59;;;9.88;72.24
62333;BME280;48624;49.812;8.562;2023-04-08T09:43:48;101271.16;;;9.85;72.94
62333;BME280;48624;49.812;8.562;2023-04-08T09:46:15;101272.03;;;9.51;73.09
62333;BME280;48624;49.812;8.562;2023-04-08T09:48:48;101267.13;;;9.61;70.92
62333;BME280;48624;49.812;8.562;2023-04-08T09:51:15;101266.50;;;9.73;72.34
62333;BME280;48624;49.812;8.562;2023-04-08T09:53:46;101276.63;;;9.82;74.59
62333;BME280;48624;49.812;8.562;2023-04-08T09:56:13;101267.25;;;9.93;74.19
62333;BME280;48624;49.812;8.562;2023-04-08T09:59:02;101259.50;;;9.90;71.55
62333;BME280;48624;49.812;8.562;2023-04-08T10:01:33;101267.75;;;9.83;73.79
62333;BME280;48624;49.812;8.562;2023-04-08T10:04:04;101255.78;;;10.10;73.37
62333;BME280;48624;49.812;8.562;2023-04-08T10:06:30;101258.06;;;10.34;74.71
62333;BME280;48624;49.812;8.562;2023-04-08T10:08:58;101263.88;;;10.40;71.23
62333;BME280;48624;49.812;8.562;2023-04-08T10:11:26;101265.25;;;9.80;72.32
62333;BME280;48624;49.812;8.562;2023-04-08T10:13:51;101254.94;;;10.43;72.94
62333;BME280;48624;49.812;8.562;2023-04-08T10:16:19;101259.25;;;10.28;73.29
62333;BME280;48624;49.812;8.562;2023-04-08T10:18:46;101263.84;;;10.58;66.74
62333;BME280;48624;49.812;8.562;2023-04-08T10:24:18;101263.84;;;10.58;67.43
62333;BME280;48624;49.812;8.562;2023-04-08T10:26:48;101261.72;;;10.65;68.83
62333;BME280;48624;49.812;8.562;2023-04-08T10:31:42;101261.44;;;11.18;67.92
62333;BME280;48624;49.812;8.562;2023-04-08T10:34:21;101256.53;;;11.26;65.47
62333;BME280;48624;49.812;8.562;2023-04-08T10:36:48;101256.34;;;11.29;63.98
62333;BME280;48624;49.812;8.562;2023-04-08T10:39:15;101263.38;;;11.30;62.29
62333;BME280;48624;49.812;8.562;2023-04-08T10:41:48;101256.91;;;11.04;60.77
62333;BME280;48624;49.812;8.562;2023-04-08T10:44:22;101264.44;;;11.42;57.90
62333;BME280;48624;49.812;8.562;2023-04-08T10:46:49;101263.91;;;11.82;57.18
62333;BME280;48624;49.812;8.562;2023-04-08T10:49:17;101268.44;;;11.19;59.07
62333;BME280;48624;49.812;8.562;2023-04-08T10:51:44;101256.84;;;11.66;56.48
62333;BME280;48624;49.812;8.562;2023-04-08T10:54:16;101251.13;;;11.58;55.99
62333;BME280;48624;49.812;8.562;2023-04-08T10:56:47;101248.81;;;11.52;56.09
62333;BME280;48624;49.812;8.562;2023-04-08T10:59:14;101250.22;;;11.74;57.67
62333;BME280;48624;49.812;8.562;2023-04-08T11:01:42;101251.06;;;11.74;58.43
62333;BME280;48624;49.812;8.562;2023-04-08T11:04:16;101248.28;;;12.21;52.61
62333;BME280;48624;49.812;8.562;2023-04-08T11:06:45;101248.47;;;12.47;53.03
62333;BME280;48624;49.812;8.562;2023-04-08T11:09:13;101247.34;;;12.79;51.45
62333;BME280;48624;49.812;8.562;2023-04-08T11:11:44;101240.28;;;12.50;53.62
62333;BME280;48624;49.812;8.562;2023-04-08T11:14:10;101242.13;;;12.77;50.37
62333;BME280;48624;49.812;8.562;2023-04-08T11:16:37;101235.69;;;12.81;52.49
62333;BME280;48624;49.812;8.562;2023-04-08T11:19:04;101237.28;;;12.27;53.55
62333;BME280;48624;49.812;8.562;2023-04-08T11:21:37;101237.06;;;12.87;50.32
62333;BME280;48624;49.812;8.562;2023-04-08T11:24:08;101241.47;;;12.73;57.64
62333;BME280;48624;49.812;8.562;2023-04-08T11:26:35;101244.34;;;11.83;59.56
62333;BME280;48624;49.812;8.562;2023-04-08T11:29:02;101254.16;;;12.12;58.54
62333;BME280;48624;49.812;8.562;2023-04-08T11:31:28;101239.75;;;12.16;60.31
62333;BME280;48624;49.812;8.562;2023-04-08T11:33:53;101244.47;;;12.54;58.75
62333;BME280;48624;49.812;8.562;2023-04-08T11:36:22;101242.00;;;11.48;61.27
62333;BME280;48624;49.812;8.562;2023-04-08T11:38:48;101239.31;;;11.78;60.54
62333;BME280;48624;49.812;8.562;2023-04-08T11:41:14;101232.03;;;11.37;62.31
62333;BME280;48624;49.812;8.562;2023-04-08T11:43:50;101235.69;;;11.65;62.11
62333;BME280;48624;49.812;8.562;2023-04-08T11:46:17;101231.41;;;11.48;64.14
62333;BME280;48624;49.812;8.562;2023-04-08T11:49:03;101226.81;;;11.35;65.30
62333;BME280;48624;49.812;8.562;2023-04-08T11:51:29;101224.84;;;11.39;64.76
62333;BME280;48624;49.812;8.562;2023-04-08T11:53:54;101228.06;;;12.33;59.46
62333;BME280;48624;49.812;8.562;2023-04-08T11:56:21;101225.38;;;11.89;62.29
62333;BME280;48624;49.812;8.562;2023-04-08T11:58:50;101239.91;;;12.84;59.14
62333;BME280;48624;49.812;8.562;2023-04-08T12:01:16;101243.16;;;12.47;61.06
62333;BME280;48624;49.812;8.562;2023-04-08T12:03:58;101231.50;;;12.06;63.73
62333;BME280;48624;49.812;8.562;2023-04-08T12:06:23;101230.69;;;11.89;65.28
62333;BME280;48624;49.812;8.562;2023-04-08T12:08:49;101230.56;;;12.21;64.13
62333;BME280;48624;49.812;8.562;2023-04-08T12:11:14;101234.25;;;12.33;63.20
62333;BME280;48624;49.812;8.562;2023-04-08T12:13:40;101226.72;;;13.10;62.46
62333;BME280;48624;49.812;8.562;2023-04-08T12:16:06;101230.41;;;13.35;62.94
62333;BME280;48624;49.812;8.562;2023-04-08T12:18:31;101225.50;;;13.28;62.56
62333;BME280;48624;49.812;8.562;2023-04-08T12:20:58;101213.28;;;13.39;60.39
62333;BME280;48624;49.812;8.562;2023-04-08T12:23:24;101212.47;;;13.51;59.64
62333;BME280;48624;49.812;8.562;2023-04-08T12:25:50;101220.31;;;14.31;54.57
62333;BME280;48624;49.812;8.562;2023-04-08T12:28:15;101222.38;;;13.49;58.59
62333;BME280;48624;49.812;8.562;2023-04-08T12:30:40;101214.78;;;12.75;60.63
62333;BME280;48624;49.812;8.562;2023-04-08T12:33:06;101217.78;;;13.51;58.90
62333;BME280;48624;49.812;8.562;2023-04-08T12:35:31;101214.91;;;13.93;57.36
62333;BME280;48624;49.812;8.562;2023-04-08T12:37:56;101215.94;;;14.29;57.48
62333;BME280;48624;49.812;8.562;2023-04-08T12:40:22;101217.56;;;14.19;55.79
62333;BME280;48624;49.812;8.562;2023-04-08T12:42:47;101208.50;;;14.22;56.61
62333;BME280;48624;49.812;8.562;2023-04-08T12:45:12;101209.31;;;13.72;55.97
62333;BME280;48624;49.812;8.562;2023-04-08T12:47:39;101200.75;;;14.06;54.27
62333;BME280;48624;49.812;8.562;2023-04-08T12:50:05;101202.78;;;14.15;54.48
62333;BME280;48624;49.812;8.562;2023-04-08T12:52:30;101189.84;;;14.22;56.27
62333;BME280;48624;49.812;8.562;2023-04-08T12:54:57;101192.47;;;13.84;57.08
62333;BME280;48624;49.812;8.562;2023-04-08T12:57:22;101197.66;;;14.87;56.32
62333;BME280;48624;49.812;8.562;2023-04-08T12:59:48;101190.91;;;14.94;55.31
62333;BME280;48624;49.812;8.562;2023-04-08T13:02:18;101188.50;;;15.02;53.48
62333;BME280;48624;49.812;8.562;2023-04-08T13:04:43;101182.97;;;16.32;51.69
62333;BME280;48624;49.812;8.562;2023-04-08T13:07:09;101180.94;;;16.25;51.58